createdAt,value
2022-10-22T00:00:18.805Z,12.68
2022-10-22T00:03:01.774Z,12.69
2022-10-22T00:05:44.788Z,12.70
2022-10-22T00:08:27.696Z,12.72
2022-10-22T00:11:13.080Z,12.72
2022-10-22T00:13:56.134Z,12.73
2022-10-22T00:16:40.392Z,12.75
2022-10-22T00:19:23.283Z,12.76
2022-10-22T00:22:06.278Z,12.77
2022-10-22T00:24:49.377Z,12.79
2022-10-22T00:27:32.218Z,12.80
2022-10-22T00:30:15.282Z,12.81
2022-10-22T00:32:59.586Z,12.81
2022-10-22T00:35:42.486Z,12.81
2022-10-22T00:38:25.679Z,12.81
2022-10-22T00:41:08.718Z,12.82
2022-10-22T00:43:56.497Z,12.81
2022-10-22T00:46:39.341Z,12.82
2022-10-22T00:49:23.638Z,12.82
2022-10-22T00:52:07.517Z,12.82
2022-10-22T00:54:51.154Z,12.79
2022-10-22T00:57:35.841Z,12.79
2022-10-22T01:00:19.056Z,12.80
2022-10-22T01:03:02.575Z,12.80
2022-10-22T01:05:55.273Z,12.81
2022-10-22T01:08:48.115Z,12.81
2022-10-22T01:11:41.510Z,12.82
2022-10-22T01:14:32.708Z,12.84
2022-10-22T01:17:24.866Z,12.84
2022-10-22T01:20:21.310Z,12.84
2022-10-22T01:23:18.437Z,12.83
2022-10-22T01:26:07.279Z,12.83
2022-10-22T01:28:59.852Z,12.85
2022-10-22T01:31:46.686Z,12.85
2022-10-22T01:34:31.771Z,12.84
2022-10-22T01:37:16.648Z,12.85
2022-10-22T01:40:01.998Z,12.85
2022-10-22T01:42:58.581Z,12.85
2022-10-22T01:45:45.446Z,12.84
2022-10-22T01:48:40.568Z,12.84
2022-10-22T01:51:30.990Z,12.85
2022-10-22T01:54:26.519Z,12.85
2022-10-22T01:57:17.910Z,12.85
2022-10-22T02:00:05.065Z,12.87
2022-10-22T02:02:59.670Z,12.88
2022-10-22T02:05:49.419Z,12.89
2022-10-22T02:08:34.875Z,12.91
2022-10-22T02:11:18.439Z,12.94
2022-10-22T02:14:04.397Z,12.95
2022-10-22T02:16:50.181Z,12.99
2022-10-22T02:19:41.502Z,13.01
2022-10-22T02:22:26.130Z,13.01
2022-10-22T02:25:11.607Z,13.01
2022-10-22T02:28:03.514Z,13.01
2022-10-22T02:30:53.979Z,13.01
2022-10-22T02:33:43.374Z,13.00
2022-10-22T02:36:27.979Z,13.00
2022-10-22T02:39:12.202Z,12.99
2022-10-22T02:41:55.649Z,13.00
2022-10-22T02:44:38.536Z,13.01
2022-10-22T02:47:21.507Z,12.99
2022-10-22T02:50:07.893Z,13.00
2022-10-22T02:52:54.646Z,12.98
2022-10-22T02:55:37.993Z,12.95
2022-10-22T02:58:20.860Z,12.92
2022-10-22T03:01:03.826Z,12.90
2022-10-22T03:03:46.774Z,12.88
2022-10-22T03:06:29.653Z,12.87
2022-10-22T03:09:13.907Z,12.87
2022-10-22T03:11:56.789Z,12.85
2022-10-22T03:14:39.626Z,12.83
2022-10-22T03:17:22.721Z,12.84
2022-10-22T03:20:06.391Z,12.82
2022-10-22T03:22:49.349Z,12.79
2022-10-22T03:25:34.674Z,12.78
2022-10-22T03:28:18.924Z,12.76
2022-10-22T03:31:01.868Z,12.75
2022-10-22T03:33:44.672Z,12.75
2022-10-22T03:36:27.698Z,12.74
2022-10-22T03:39:13.597Z,12.73
2022-10-22T03:41:58.269Z,12.74
2022-10-22T03:44:41.906Z,12.74
2022-10-22T03:47:25.413Z,12.73
2022-10-22T03:50:09.692Z,12.73
2022-10-22T03:52:53.394Z,12.72
2022-10-22T03:55:36.222Z,12.72
2022-10-22T03:58:20.523Z,12.71
2022-10-22T04:01:06.285Z,12.72
2022-10-22T04:03:49.194Z,12.71
2022-10-22T04:06:32.127Z,12.71
2022-10-22T04:09:15.061Z,12.71
2022-10-22T04:11:57.953Z,12.69
2022-10-22T04:14:42.207Z,12.69
2022-10-22T04:17:25.141Z,12.69
2022-10-22T04:20:08.939Z,12.69
2022-10-22T04:22:51.895Z,12.69
2022-10-22T04:25:34.802Z,12.69
2022-10-22T04:28:17.685Z,12.67
2022-10-22T04:31:02.115Z,12.61
2022-10-22T04:33:45.259Z,12.58
2022-10-22T04:36:29.266Z,12.56
2022-10-22T04:39:12.084Z,12.55
2022-10-22T04:41:55.014Z,12.56
2022-10-22T04:44:37.875Z,12.55
2022-10-22T04:47:22.117Z,12.55
2022-10-22T04:50:05.862Z,12.54
2022-10-22T04:52:48.736Z,12.54
2022-10-22T04:58:19.374Z,12.54
2022-10-22T05:01:02.333Z,12.54
2022-10-22T05:03:47.431Z,12.53
2022-10-22T05:06:31.598Z,12.51
2022-10-22T05:09:16.234Z,12.53
2022-10-22T05:11:58.955Z,12.52
2022-10-22T05:14:44.100Z,12.52
2022-10-22T05:17:27.904Z,12.49
2022-10-22T05:20:13.002Z,12.48
2022-10-22T05:22:55.818Z,12.45
2022-10-22T05:25:39.277Z,12.44
2022-10-22T05:28:22.242Z,12.42
2022-10-22T05:31:05.941Z,12.40
2022-10-22T05:33:49.042Z,12.41
2022-10-22T05:36:33.238Z,12.40
2022-10-22T05:39:16.208Z,12.33
2022-10-22T05:41:59.558Z,12.31
2022-10-22T05:44:42.464Z,12.16
2022-10-22T05:47:25.333Z,12.11
2022-10-22T05:50:09.132Z,12.10
2022-10-22T05:52:53.351Z,11.85
2022-10-22T05:55:38.898Z,11.86
2022-10-22T05:58:21.759Z,11.79
2022-10-22T06:01:05.216Z,11.68
2022-10-22T06:03:49.153Z,11.61
2022-10-22T06:06:35.168Z,11.61
2022-10-22T06:09:23.393Z,11.60
2022-10-22T06:12:09.193Z,11.61
2022-10-22T06:14:52.066Z,11.56
2022-10-22T06:17:34.942Z,11.48
2022-10-22T06:20:18.047Z,11.49
2022-10-22T06:23:00.909Z,11.40
2022-10-22T06:25:45.106Z,11.41
2022-10-22T06:28:28.382Z,11.44
2022-10-22T06:31:11.361Z,11.46
2022-10-22T06:33:54.437Z,11.49
2022-10-22T06:36:37.457Z,11.52
2022-10-22T06:39:20.421Z,11.54
2022-10-22T06:42:04.798Z,11.56
2022-10-22T06:44:50.352Z,11.59
2022-10-22T06:47:33.458Z,11.61
2022-10-22T06:50:16.373Z,11.63
2022-10-22T06:52:59.250Z,11.61
2022-10-22T06:55:42.120Z,11.54
2022-10-22T06:58:26.383Z,11.51
2022-10-22T07:01:11.226Z,11.47
2022-10-22T07:03:54.670Z,11.43
2022-10-22T07:06:37.826Z,11.33
2022-10-22T07:09:20.751Z,11.28
2022-10-22T07:12:03.586Z,11.29
2022-10-22T07:14:47.836Z,11.29
2022-10-22T07:17:30.889Z,11.29
2022-10-22T07:20:13.798Z,11.33
2022-10-22T07:22:56.715Z,11.34
2022-10-22T07:25:39.593Z,11.38
2022-10-22T07:28:22.500Z,11.43
2022-10-22T07:31:07.646Z,11.49
2022-10-22T07:33:50.462Z,11.54
2022-10-22T07:36:33.331Z,11.60
2022-10-22T07:39:16.235Z,11.64
2022-10-22T07:41:59.111Z,11.68
2022-10-22T07:44:42.006Z,11.71
2022-10-22T07:47:26.279Z,11.74
2022-10-22T07:50:09.653Z,11.76
2022-10-22T07:52:53.829Z,11.79
2022-10-22T07:55:39.044Z,11.82
2022-10-22T07:58:23.433Z,11.83
2022-10-22T08:01:06.808Z,11.85
2022-10-22T08:03:51.170Z,11.87
2022-10-22T08:06:34.005Z,11.87
2022-10-22T08:09:16.906Z,11.88
2022-10-22T08:11:59.763Z,11.90
2022-10-22T08:14:42.683Z,11.92
2022-10-22T08:17:25.577Z,11.94
2022-10-22T08:20:10.989Z,11.97
2022-10-22T08:22:53.920Z,12.00
2022-10-22T08:25:37.168Z,12.03
2022-10-22T08:28:22.056Z,12.05
2022-10-22T08:31:05.610Z,12.07
2022-10-22T08:33:48.504Z,12.08
2022-10-22T08:36:33.106Z,12.10
2022-10-22T08:39:16.018Z,12.15
2022-10-22T08:42:08.291Z,12.21
2022-10-22T08:45:04.554Z,12.24
2022-10-22T08:48:08.645Z,12.31
2022-10-22T08:50:55.672Z,12.37
2022-10-22T08:53:48.831Z,12.43
2022-10-22T08:56:32.520Z,12.47
2022-10-22T08:59:22.400Z,12.52
2022-10-22T09:02:17.552Z,12.55
2022-10-22T09:05:07.628Z,12.60
2022-10-22T09:07:53.231Z,12.62
2022-10-22T09:10:39.527Z,12.63
2022-10-22T09:13:24.419Z,12.64
2022-10-22T09:16:17.080Z,12.67
2022-10-22T09:19:11.773Z,12.69
2022-10-22T09:22:02.228Z,12.72
2022-10-22T09:24:47.608Z,12.75
2022-10-22T09:27:32.498Z,12.78
2022-10-22T09:30:19.335Z,12.79
2022-10-22T09:33:07.839Z,12.79
2022-10-22T09:35:54.331Z,12.79
2022-10-22T09:38:41.452Z,12.81
2022-10-22T09:41:27.030Z,12.82
2022-10-22T09:44:13.987Z,12.87
2022-10-22T09:46:56.931Z,12.86
2022-10-22T09:49:39.769Z,12.89
2022-10-22T09:52:29.065Z,12.94
2022-10-22T09:55:15.478Z,13.01
2022-10-22T09:58:01.365Z,13.02
2022-10-22T10:00:48.094Z,13.04
2022-10-22T10:03:34.072Z,13.05
2022-10-22T10:06:19.924Z,13.09
2022-10-22T10:09:05.914Z,13.13
2022-10-22T10:11:55.202Z,13.17
2022-10-22T10:14:44.901Z,13.21
2022-10-22T10:17:37.465Z,13.24
2022-10-22T10:20:35.177Z,13.26
2022-10-22T10:23:25.473Z,13.29
2022-10-22T10:26:15.834Z,13.33
2022-10-22T10:29:12.556Z,13.37
2022-10-22T10:32:11.095Z,13.41
2022-10-22T10:35:06.562Z,13.44
2022-10-22T10:38:00.271Z,13.48
2022-10-22T10:40:49.523Z,13.50
2022-10-22T10:43:44.581Z,13.50
2022-10-22T10:46:36.914Z,13.56
2022-10-22T10:49:24.167Z,13.61
2022-10-22T10:52:21.290Z,13.65
2022-10-22T10:55:16.220Z,13.72
2022-10-22T10:58:12.065Z,13.78
2022-10-22T11:01:01.838Z,13.82
2022-10-22T11:04:06.042Z,13.83
2022-10-22T11:06:51.536Z,13.83
2022-10-22T11:09:39.460Z,13.83
2022-10-22T11:12:27.489Z,13.81
2022-10-22T11:15:21.385Z,13.79
2022-10-22T11:18:13.859Z,13.78
2022-10-22T11:21:08.079Z,13.75
2022-10-22T11:23:56.767Z,13.77
2022-10-22T11:26:46.218Z,13.78
2022-10-22T11:29:33.069Z,13.80
2022-10-22T11:32:19.674Z,13.83
2022-10-22T11:35:05.936Z,13.90
2022-10-22T11:37:49.675Z,13.95
2022-10-22T11:40:36.994Z,14.01
2022-10-22T11:43:33.204Z,14.07
2022-10-22T11:46:30.524Z,14.16
2022-10-22T11:49:28.973Z,14.30
2022-10-22T11:52:28.107Z,14.52
2022-10-22T11:55:33.675Z,14.72
2022-10-22T11:58:33.819Z,14.82
2022-10-22T12:01:26.533Z,14.82
2022-10-22T12:04:41.542Z,14.79
2022-10-22T12:07:34.596Z,14.77
2022-10-22T12:10:20.721Z,14.79
2022-10-22T12:13:13.256Z,14.72
2022-10-22T12:16:00.061Z,14.69
2022-10-22T12:18:45.535Z,14.66
2022-10-22T12:21:28.410Z,14.64
2022-10-22T12:24:15.281Z,14.63
2022-10-22T12:26:58.148Z,14.63
2022-10-22T12:29:41.100Z,14.67
2022-10-22T12:32:35.922Z,14.83
2022-10-22T12:35:21.177Z,15.06
2022-10-22T12:38:09.596Z,15.21
2022-10-22T12:40:56.537Z,15.32
2022-10-22T12:43:40.490Z,15.33
2022-10-22T12:46:23.575Z,15.27
2022-10-22T12:49:14.901Z,15.15
2022-10-22T12:52:04.193Z,15.04
2022-10-22T12:54:48.771Z,14.93
2022-10-22T12:57:31.661Z,14.85
2022-10-22T13:00:25.752Z,14.77
2022-10-22T13:03:08.754Z,14.74
2022-10-22T13:05:53.042Z,14.80
2022-10-22T13:08:36.002Z,14.84
2022-10-22T13:11:22.333Z,14.86
2022-10-22T13:14:06.068Z,14.87
2022-10-22T13:17:08.282Z,14.86
2022-10-22T13:20:05.329Z,14.82
2022-10-22T13:23:00.278Z,14.77
2022-10-22T13:25:43.330Z,14.72
2022-10-22T13:28:27.537Z,14.67
2022-10-22T13:31:16.714Z,14.63
2022-10-22T13:34:06.554Z,14.55
2022-10-22T13:36:53.444Z,14.51
2022-10-22T13:39:37.678Z,14.46
2022-10-22T13:42:20.564Z,14.43
2022-10-22T13:45:03.456Z,14.41
2022-10-22T13:47:51.794Z,14.40
2022-10-22T13:50:34.723Z,14.38
2022-10-22T13:53:20.093Z,14.36
2022-10-22T13:56:04.658Z,14.33
2022-10-22T13:58:48.895Z,14.33
2022-10-22T14:01:32.040Z,14.33
2022-10-22T14:04:15.551Z,14.34
2022-10-22T14:07:01.276Z,14.37
2022-10-22T14:09:46.823Z,14.38
2022-10-22T14:12:31.846Z,14.35
2022-10-22T14:15:16.650Z,14.20
2022-10-22T14:18:00.296Z,14.18
2022-10-22T14:20:43.737Z,14.16
2022-10-22T14:23:28.575Z,14.16
2022-10-22T14:26:15.403Z,14.11
2022-10-22T14:29:15.420Z,14.13
2022-10-22T14:31:58.375Z,14.13
2022-10-22T14:34:41.585Z,14.13
2022-10-22T14:37:24.950Z,14.13
2022-10-22T14:40:09.385Z,14.12
2022-10-22T14:42:52.456Z,14.12
2022-10-22T14:45:36.715Z,14.11
2022-10-22T14:51:07.914Z,14.12
2022-10-22T14:53:51.185Z,14.14
2022-10-22T14:56:34.103Z,14.21
2022-10-22T14:59:17.762Z,14.30
2022-10-22T15:02:02.009Z,14.33
2022-10-22T15:04:44.909Z,14.32
2022-10-22T15:07:28.322Z,14.30
2022-10-22T15:10:12.029Z,14.31
2022-10-22T15:12:54.901Z,14.31
2022-10-22T15:15:39.850Z,14.30
2022-10-22T15:18:25.181Z,14.27
2022-10-22T15:21:14.323Z,14.24
2022-10-22T15:23:57.225Z,14.21
2022-10-22T15:26:40.147Z,14.23
2022-10-22T15:29:22.997Z,14.29
2022-10-22T15:32:06.460Z,14.33
2022-10-22T15:34:54.152Z,14.40
2022-10-22T15:37:37.876Z,14.49
2022-10-22T15:40:20.856Z,14.56
2022-10-22T15:43:03.766Z,14.55
2022-10-22T15:46:02.154Z,14.50
2022-10-22T15:48:45.684Z,14.44
2022-10-22T15:51:30.049Z,14.36
2022-10-22T15:54:15.260Z,14.30
2022-10-22T15:56:59.049Z,14.23
2022-10-22T15:59:41.962Z,14.16
2022-10-22T16:02:24.875Z,14.05
2022-10-22T16:05:08.822Z,13.98
2022-10-22T16:07:55.810Z,13.90
2022-10-22T16:10:38.714Z,13.85
2022-10-22T16:13:23.899Z,13.78
2022-10-22T16:16:08.315Z,13.72
2022-10-22T16:18:51.765Z,13.66
2022-10-22T16:21:34.713Z,13.59
2022-10-22T16:24:19.604Z,13.52
2022-10-22T16:27:03.451Z,13.45
2022-10-22T16:29:46.385Z,13.39
2022-10-22T16:32:29.286Z,13.35
2022-10-22T16:35:12.178Z,13.33
2022-10-22T16:37:55.042Z,13.30
2022-10-22T16:40:39.528Z,13.27
2022-10-22T16:43:22.390Z,13.24
2022-10-22T16:46:06.478Z,13.21
2022-10-22T16:48:51.380Z,13.18
2022-10-22T16:51:34.416Z,13.14
2022-10-22T16:54:17.703Z,13.11
2022-10-22T16:57:01.945Z,13.09
2022-10-22T16:59:44.879Z,13.04
2022-10-22T17:02:27.796Z,13.03
2022-10-22T17:05:10.768Z,13.04
2022-10-22T17:07:53.593Z,13.01
2022-10-22T17:10:37.506Z,13.00
2022-10-22T17:13:21.750Z,13.00
2022-10-22T17:16:06.107Z,12.97
2022-10-22T17:18:49.265Z,12.94
2022-10-22T17:21:32.219Z,12.92
2022-10-22T17:24:15.140Z,12.90
2022-10-22T17:26:58.056Z,12.89
2022-10-22T17:29:44.617Z,12.89
2022-10-22T17:32:27.578Z,12.87
2022-10-22T17:35:10.710Z,12.85
2022-10-22T17:37:53.652Z,12.83
2022-10-22T17:40:37.950Z,12.77
2022-10-22T17:43:21.018Z,12.68
2022-10-22T17:46:07.263Z,12.64
2022-10-22T17:48:51.152Z,12.58
2022-10-22T17:51:34.095Z,12.55
2022-10-22T17:54:17.013Z,12.55
2022-10-22T17:56:59.911Z,12.52
2022-10-22T17:59:42.981Z,12.49
2022-10-22T18:02:27.297Z,12.47
2022-10-22T18:05:10.962Z,12.46
2022-10-22T18:07:55.557Z,12.44
2022-10-22T18:10:40.333Z,12.40
2022-10-22T18:13:23.204Z,12.37
2022-10-22T18:16:06.926Z,12.33
2022-10-22T18:18:53.076Z,12.30
2022-10-22T18:21:36.950Z,12.25
2022-10-22T18:24:20.017Z,12.22
2022-10-22T18:27:02.962Z,12.20
2022-10-22T18:29:45.924Z,12.18
2022-10-22T18:32:28.743Z,12.15
2022-10-22T18:35:13.203Z,12.13
2022-10-22T18:37:56.108Z,12.10
2022-10-22T18:40:44.866Z,12.09
2022-10-22T18:43:28.307Z,12.07
2022-10-22T18:46:11.336Z,12.04
2022-10-22T18:48:54.578Z,12.01
2022-10-22T18:51:38.762Z,11.96
2022-10-22T18:54:23.845Z,11.92
2022-10-22T18:57:07.494Z,11.86
2022-10-22T18:59:50.376Z,11.84
2022-10-22T19:02:33.798Z,11.82
2022-10-22T19:05:16.675Z,11.81
2022-10-22T19:08:01.046Z,11.79
2022-10-22T19:10:43.987Z,11.76
2022-10-22T19:13:26.994Z,11.74
2022-10-22T19:16:13.364Z,11.71
2022-10-22T19:19:01.891Z,11.68
2022-10-22T19:21:45.148Z,11.68
2022-10-22T19:24:29.465Z,11.69
2022-10-22T19:27:12.315Z,11.71
2022-10-22T19:29:55.258Z,11.71
2022-10-22T19:32:38.303Z,11.71
2022-10-22T19:35:21.245Z,11.72
2022-10-22T19:38:04.200Z,11.72
2022-10-22T19:40:48.480Z,11.72
2022-10-22T19:43:31.503Z,11.67
2022-10-22T19:46:14.599Z,11.62
2022-10-22T19:48:57.636Z,11.61
2022-10-22T19:51:40.733Z,11.59
2022-10-22T19:54:23.573Z,11.56
2022-10-22T19:57:07.876Z,11.58
2022-10-22T19:59:51.034Z,11.56
2022-10-22T20:02:33.973Z,11.55
2022-10-22T20:05:17.024Z,11.54
2022-10-22T20:08:00.119Z,11.52
2022-10-22T20:10:43.243Z,11.49
2022-10-22T20:13:27.583Z,11.48
2022-10-22T20:16:10.730Z,11.45
2022-10-22T20:18:54.041Z,11.44
2022-10-22T20:21:37.417Z,11.36
2022-10-22T20:24:20.326Z,11.36
2022-10-22T20:27:03.225Z,11.36
2022-10-22T20:29:47.436Z,11.35
2022-10-22T20:32:30.415Z,11.35
2022-10-22T20:35:16.159Z,11.36
2022-10-22T20:37:59.063Z,11.39
2022-10-22T20:40:42.261Z,11.42
2022-10-22T20:43:25.274Z,11.44
2022-10-22T20:46:09.499Z,11.46
2022-10-22T20:48:53.745Z,11.48
2022-10-22T20:51:37.607Z,11.50
2022-10-22T20:54:20.534Z,11.51
2022-10-22T20:57:05.427Z,11.53
2022-10-22T20:59:48.455Z,11.52
2022-10-22T21:02:32.758Z,11.51
2022-10-22T21:05:15.807Z,11.50
2022-10-22T21:07:59.092Z,11.51
2022-10-22T21:10:41.916Z,11.55
2022-10-22T21:13:24.816Z,11.58
2022-10-22T21:16:09.377Z,11.60
2022-10-22T21:18:54.318Z,11.61
2022-10-22T21:21:37.326Z,11.64
2022-10-22T21:24:24.580Z,11.65
2022-10-22T21:27:07.529Z,11.68
2022-10-22T21:29:50.415Z,11.70
2022-10-22T21:32:33.320Z,11.75
2022-10-22T21:35:17.587Z,11.76
2022-10-22T21:38:00.467Z,11.79
2022-10-22T21:40:43.359Z,11.81
2022-10-22T21:43:26.231Z,11.81
2022-10-22T21:46:11.181Z,11.81
2022-10-22T21:48:55.283Z,11.79
2022-10-22T21:51:39.530Z,11.78
2022-10-22T21:54:22.419Z,11.78
2022-10-22T21:57:05.526Z,11.78
2022-10-22T21:59:48.447Z,11.78
2022-10-22T22:02:32.459Z,11.77
2022-10-22T22:05:17.201Z,11.76
2022-10-22T22:08:01.218Z,11.74
2022-10-22T22:10:44.704Z,11.72
2022-10-22T22:13:27.615Z,11.68
2022-10-22T22:16:12.157Z,11.64
2022-10-22T22:18:55.095Z,11.58
2022-10-22T22:21:40.734Z,11.56
2022-10-22T22:24:24.974Z,11.55
2022-10-22T22:27:08.253Z,11.53
2022-10-22T22:29:51.111Z,11.52
2022-10-22T22:32:34.081Z,11.50
2022-10-22T22:35:16.958Z,11.50
2022-10-22T22:38:00.032Z,11.52
2022-10-22T22:40:44.444Z,11.52
2022-10-22T22:43:27.346Z,11.52
2022-10-22T22:46:12.455Z,11.51
2022-10-22T22:48:55.475Z,11.51
2022-10-22T22:51:38.359Z,11.49
2022-10-22T22:54:21.210Z,11.49
2022-10-22T22:57:05.561Z,11.47
2022-10-22T22:59:50.944Z,11.45
2022-10-22T23:02:33.816Z,11.44
2022-10-22T23:05:16.925Z,11.42
2022-10-22T23:08:00.417Z,11.40
2022-10-22T23:10:43.421Z,11.39
2022-10-22T23:13:27.646Z,11.38
2022-10-22T23:16:14.649Z,11.38
2022-10-22T23:18:58.119Z,11.38
2022-10-22T23:21:42.320Z,11.38
2022-10-22T23:24:27.447Z,11.37
2022-10-22T23:27:11.237Z,11.35
2022-10-22T23:29:55.523Z,11.35
2022-10-22T23:32:38.812Z,11.33
2022-10-22T23:35:21.923Z,11.33
2022-10-22T23:38:04.805Z,11.30
2022-10-22T23:40:47.679Z,11.29
2022-10-22T23:43:31.648Z,11.28
2022-10-22T23:46:15.857Z,11.23
2022-10-22T23:48:58.701Z,11.22
2022-10-22T23:51:42.124Z,11.20
2022-10-22T23:54:25.039Z,11.17
2022-10-22T23:57:07.955Z,11.13
2022-10-22T23:59:50.769Z,11.08
